sensor_id;sensor_type;location;lat;lon;timestamp;pressure;altitude;pressure_sealevel;temperature;humidity
13476;BME280;6810;63.824;20.288;2023-11-19T00:02:14;101872.03;;;-8.22;75.40
13476;BME280;6810;63.824;20.288;2023-11-19T00:05:01;101875.44;;;-8.24;74.82
13476;BME280;6810;63.824;20.288;2023-11-19T00:07:48;101875.44;;;-8.24;74.75
13476;BME280;6810;63.824;20.288;2023-11-19T00:10:35;101867.59;;;-8.27;75.10
13476;BME280;6810;63.824;20.288;2023-11-19T00:13:22;101874.44;;;-8.28;75.13
13476;BME280;6810;63.824;20.288;2023-11-19T00:16:09;101865.06;;;-8.26;74.73
13476;BME280;6810;63.824;20.288;2023-11-19T00:18:56;101877.09;;;-8.26;75.25
13476;BME280;6810;63.824;20.288;2023-11-19T00:21:43;101868.47;;;-8.27;75.10
13476;BME280;6810;63.824;20.288;2023-11-19T00:24:30;101862.94;;;-8.36;75.12
13476;BME280;6810;63.824;20.288;2023-11-19T00:27:17;101870.97;;;-8.30;75.50
13476;BME280;6810;63.824;20.288;2023-11-19T00:30:07;101870.13;;;-8.29;75.22
13476;BME280;6810;63.824;20.288;2023-11-19T00:32:57;101872.69;;;-8.29;75.21
13476;BME280;6810;63.824;20.288;2023-11-19T00:35:44;101857.94;;;-8.33;74.98
13476;BME280;6810;63.824;20.288;2023-11-19T00:38:31;101863.16;;;-8.31;74.97
13476;BME280;6810;63.824;20.288;2023-11-19T00:41:18;101865.72;;;-8.31;74.75
13476;BME280;6810;63.824;20.288;2023-11-19T00:44:06;101863.94;;;-8.32;75.11
13476;BME280;6810;63.824;20.288;2023-11-19T00:46:53;101850.91;;;-8.35;75.42
13476;BME280;6810;63.824;20.288;2023-11-19T00:49:41;101854.44;;;-8.33;74.70
13476;BME280;6810;63.824;20.288;2023-11-19T00:52:28;101849.13;;;-8.38;74.88
13476;BME280;6810;63.824;20.288;2023-11-19T00:55:15;101856.16;;;-8.34;75.17
13476;BME280;6810;63.824;20.288;2023-11-19T00:58:12;101854.41;;;-8.35;75.52
13476;BME280;6810;63.824;20.288;2023-11-19T01:00:59;101850.91;;;-8.35;75.29
13476;BME280;6810;63.824;20.288;2023-11-19T01:03:46;101850.91;;;-8.35;74.93
13476;BME280;6810;63.824;20.288;2023-11-19T01:06:33;101853.50;;;-8.35;75.09
13476;BME280;6810;63.824;20.288;2023-11-19T01:09:20;101847.34;;;-8.39;74.92
13476;BME280;6810;63.824;20.288;2023-11-19T01:12:07;101842.06;;;-8.42;75.14
13476;BME280;6810;63.824;20.288;2023-11-19T01:14:54;101853.44;;;-8.37;75.59
13476;BME280;6810;63.824;20.288;2023-11-19T01:17:42;101861.22;;;-8.37;74.84
13476;BME280;6810;63.824;20.288;2023-11-19T01:20:29;101854.28;;;-8.38;75.14
13476;BME280;6810;63.824;20.288;2023-11-19T01:23:16;101853.44;;;-8.37;74.84
13476;BME280;6810;63.824;20.288;2023-11-19T01:26:03;101853.41;;;-8.38;74.72
13476;BME280;6810;63.824;20.288;2023-11-19T01:28:50;101841.22;;;-8.42;74.83
13476;BME280;6810;63.824;20.288;2023-11-19T01:31:38;101842.16;;;-8.39;75.30
13476;BME280;6810;63.824;20.288;2023-11-19T01:34:24;101829.03;;;-8.45;75.00
13476;BME280;6810;63.824;20.288;2023-11-19T01:37:12;101833.41;;;-8.44;74.89
13476;BME280;6810;63.824;20.288;2023-11-19T01:39:59;101828.28;;;-8.42;74.72
13476;BME280;6810;63.824;20.288;2023-11-19T01:42:46;101833.41;;;-8.44;74.98
13476;BME280;6810;63.824;20.288;2023-11-19T01:45:39;101835.03;;;-8.46;74.57
13476;BME280;6810;63.824;20.288;2023-11-19T01:48:27;101820.38;;;-8.47;75.31
13476;BME280;6810;63.824;20.288;2023-11-19T01:51:15;101815.16;;;-8.48;74.89
13476;BME280;6810;63.824;20.288;2023-11-19T01:54:03;101809.88;;;-8.51;74.72
13476;BME280;6810;63.824;20.288;2023-11-19T01:56:52;101718.56;;;-9.00;75.32
13476;BME280;6810;63.824;20.288;2023-11-19T01:59:40;101797.66;;;-8.55;74.42
13476;BME280;6810;63.824;20.288;2023-11-19T02:02:27;101798.53;;;-8.55;74.86
13476;BME280;6810;63.824;20.288;2023-11-19T02:05:15;101798.44;;;-8.58;75.10
13476;BME280;6810;63.824;20.288;2023-11-19T02:08:02;101794.16;;;-8.57;74.85
13476;BME280;6810;63.824;20.288;2023-11-19T02:10:49;101788.94;;;-8.59;75.36
13476;BME280;6810;63.824;20.288;2023-11-19T02:13:37;101773.91;;;-8.69;74.71
13476;BME280;6810;63.824;20.288;2023-11-19T02:16:24;101777.66;;;-8.61;74.87
13476;BME280;6810;63.824;20.288;2023-11-19T02:19:12;101784.53;;;-8.61;74.73
13476;BME280;6810;63.824;20.288;2023-11-19T02:22:19;101775.88;;;-8.63;74.78
13476;BME280;6810;63.824;20.288;2023-11-19T02:25:21;101773.22;;;-8.65;74.70
13476;BME280;6810;63.824;20.288;2023-11-19T02:28:09;101769.69;;;-8.67;74.91
13476;BME280;6810;63.824;20.288;2023-11-19T02:30:57;101764.53;;;-8.67;74.77
13476;BME280;6810;63.824;20.288;2023-11-19T02:33:44;101756.69;;;-8.70;74.75
13476;BME280;6810;63.824;20.288;2023-11-19T02:36:31;101686.25;;;-9.13;74.57
13476;BME280;6810;63.824;20.288;2023-11-19T02:39:18;101737.34;;;-8.81;74.48
13476;BME280;6810;63.824;20.288;2023-11-19T02:42:05;101757.44;;;-8.72;74.66
13476;BME280;6810;63.824;20.288;2023-11-19T02:44:52;101729.44;;;-8.85;75.06
13476;BME280;6810;63.824;20.288;2023-11-19T02:47:43;101750.50;;;-8.73;75.39
13476;BME280;6810;63.824;20.288;2023-11-19T02:50:30;101754.78;;;-8.74;74.56
13476;BME280;6810;63.824;20.288;2023-11-19T02:53:17;101748.78;;;-8.74;74.70
13476;BME280;6810;63.824;20.288;2023-11-19T02:56:06;101749.63;;;-8.74;75.37
13476;BME280;6810;63.824;20.288;2023-11-19T02:58:53;101750.47;;;-8.75;74.78
13476;BME280;6810;63.824;20.288;2023-11-19T03:01:40;101741.78;;;-8.77;75.33
13476;BME280;6810;63.824;20.288;2023-11-19T03:04:27;101724.38;;;-8.82;75.17
13476;BME280;6810;63.824;20.288;2023-11-19T03:07:14;101734.88;;;-8.78;74.77
13476;BME280;6810;63.824;20.288;2023-11-19T03:10:01;101720.03;;;-8.83;74.59
13476;BME280;6810;63.824;20.288;2023-11-19T03:12:49;101727.84;;;-8.82;75.36
13476;BME280;6810;63.824;20.288;2023-11-19T03:15:36;101728.69;;;-8.81;74.61
13476;BME280;6810;63.824;20.288;2023-11-19T03:18:23;101684.84;;;-9.05;74.96
13476;BME280;6810;63.824;20.288;2023-11-19T03:21:10;101720.00;;;-8.85;75.25
13476;BME280;6810;63.824;20.288;2023-11-19T03:23:58;101722.56;;;-8.85;74.72
13476;BME280;6810;63.824;20.288;2023-11-19T03:26:49;101706.75;;;-8.94;74.95
13476;BME280;6810;63.824;20.288;2023-11-19T03:29:36;101714.72;;;-8.88;75.22
13476;BME280;6810;63.824;20.288;2023-11-19T03:32:23;101714.66;;;-8.89;74.88
13476;BME280;6810;63.824;20.288;2023-11-19T03:35:10;101699.13;;;-8.91;75.30
13476;BME280;6810;63.824;20.288;2023-11-19T03:37:57;101708.56;;;-8.91;75.17
13476;BME280;6810;63.824;20.288;2023-11-19T03:40:44;101704.22;;;-8.92;75.01
13476;BME280;6810;63.824;20.288;2023-11-19T03:43:31;101702.41;;;-8.95;74.49
13476;BME280;6810;63.824;20.288;2023-11-19T03:46:21;101698.97;;;-8.95;74.34
13476;BME280;6810;63.824;20.288;2023-11-19T03:49:08;101710.97;;;-8.96;74.75
13476;BME280;6810;63.824;20.288;2023-11-19T03:51:55;101699.66;;;-8.99;74.96
13476;BME280;6810;63.824;20.288;2023-11-19T03:54:47;101690.16;;;-9.00;74.71
13476;BME280;6810;63.824;20.288;2023-11-19T03:57:34;101683.06;;;-9.06;74.88
13476;BME280;6810;63.824;20.288;2023-11-19T04:00:21;101668.72;;;-9.23;74.46
13476;BME280;6810;63.824;20.288;2023-11-19T04:03:09;101696.03;;;-9.05;75.01
13476;BME280;6810;63.824;20.288;2023-11-19T04:05:55;101668.16;;;-9.15;74.77
13476;BME280;6810;63.824;20.288;2023-11-19T04:08:43;101683.00;;;-9.08;74.84
13476;BME280;6810;63.824;20.288;2023-11-19T04:11:30;101675.22;;;-9.09;74.97
13476;BME280;6810;63.824;20.288;2023-11-19T04:14:17;101682.03;;;-9.11;75.08
13476;BME280;6810;63.824;20.288;2023-11-19T04:17:04;101635.00;;;-9.28;75.19
13476;BME280;6810;63.824;20.288;2023-11-19T04:19:51;101675.06;;;-9.14;74.44
13476;BME280;6810;63.824;20.288;2023-11-19T04:22:38;101663.88;;;-9.14;75.13
13476;BME280;6810;63.824;20.288;2023-11-19T04:25:25;101665.50;;;-9.16;74.86
13476;BME280;6810;63.824;20.288;2023-11-19T04:28:12;101656.03;;;-9.17;74.46
13476;BME280;6810;63.824;20.288;2023-11-19T04:31:00;101654.13;;;-9.21;74.37
13476;BME280;6810;63.824;20.288;2023-11-19T04:33:47;101661.88;;;-9.21;74.77
13476;BME280;6810;63.824;20.288;2023-11-19T04:36:34;101658.38;;;-9.23;74.73
13476;BME280;6810;63.824;20.288;2023-11-19T04:39:21;101659.25;;;-9.23;74.64
13476;BME280;6810;63.824;20.288;2023-11-19T04:42:08;101653.06;;;-9.28;74.83
13476;BME280;6810;63.824;20.288;2023-11-19T04:44:55;101653.06;;;-9.28;74.70
13476;BME280;6810;63.824;20.288;2023-11-19T04:47:43;101653.91;;;-9.27;75.10
13476;BME280;6810;63.824;20.288;2023-11-19T04:50:30;101651.22;;;-9.30;74.62
13476;BME280;6810;63.824;20.288;2023-11-19T04:53:17;101622.25;;;-9.47;74.09
13476;BME280;6810;63.824;20.288;2023-11-19T04:56:08;101645.97;;;-9.33;74.92
13476;BME280;6810;63.824;20.288;2023-11-19T04:58:55;101569.47;;;-9.80;74.87
13476;BME280;6810;63.824;20.288;2023-11-19T05:01:46;101590.53;;;-9.68;74.35
13476;BME280;6810;63.824;20.288;2023-11-19T05:04:33;101644.00;;;-9.40;74.48
13476;BME280;6810;63.824;20.288;2023-11-19T05:07:21;101640.47;;;-9.42;75.09
13476;BME280;6810;63.824;20.288;2023-11-19T05:10:08;101634.38;;;-9.44;74.42
13476;BME280;6810;63.824;20.288;2023-11-19T05:12:55;101630.94;;;-9.45;74.66
13476;BME280;6810;63.824;20.288;2023-11-19T05:15:42;101623.94;;;-9.47;74.22
13476;BME280;6810;63.824;20.288;2023-11-19T05:18:29;101620.50;;;-9.48;74.49
13476;BME280;6810;63.824;20.288;2023-11-19T05:21:16;101623.03;;;-9.49;74.08
13476;BME280;6810;63.824;20.288;2023-11-19T05:24:03;101618.69;;;-9.50;74.14
13476;BME280;6810;63.824;20.288;2023-11-19T05:26:51;101623.84;;;-9.50;74.13
13476;BME280;6810;63.824;20.288;2023-11-19T05:29:38;101616.94;;;-9.51;74.51
13476;BME280;6810;63.824;20.288;2023-11-19T05:32:25;101626.34;;;-9.52;74.97
13476;BME280;6810;63.824;20.288;2023-11-19T05:35:12;101623.78;;;-9.52;74.38
13476;BME280;6810;63.824;20.288;2023-11-19T05:37:59;101617.72;;;-9.54;74.48
13476;BME280;6810;63.824;20.288;2023-11-19T05:40:46;101612.50;;;-9.55;74.64
13476;BME280;6810;63.824;20.288;2023-11-19T05:43:34;101609.91;;;-9.55;74.67
13476;BME280;6810;63.824;20.288;2023-11-19T05:46:21;101616.75;;;-9.56;74.36
13476;BME280;6810;63.824;20.288;2023-11-19T05:49:08;101613.28;;;-9.56;74.84
13476;BME280;6810;63.824;20.288;2023-11-19T05:51:55;101606.41;;;-9.57;74.82
13476;BME280;6810;63.824;20.288;2023-11-19T05:54:42;101616.72;;;-9.57;74.41
13476;BME280;6810;63.824;20.288;2023-11-19T05:57:29;101606.97;;;-9.64;75.06
13476;BME280;6810;63.824;20.288;2023-11-19T06:00:17;101610.66;;;-9.58;75.05
13476;BME280;6810;63.824;20.288;2023-11-19T06:03:04;101618.47;;;-9.56;75.06
13476;BME280;6810;63.824;20.288;2023-11-19T06:05:52;101607.28;;;-9.57;74.74
13476;BME280;6810;63.824;20.288;2023-11-19T06:08:39;101611.56;;;-9.57;74.05
13476;BME280;6810;63.824;20.288;2023-11-19T06:11:39;101610.72;;;-9.56;74.31
13476;BME280;6810;63.824;20.288;2023-11-19T06:14:26;101608.03;;;-9.59;74.07
13476;BME280;6810;63.824;20.288;2023-11-19T06:17:13;101609.69;;;-9.61;75.02
13476;BME280;6810;63.824;20.288;2023-11-19T06:20:00;101579.84;;;-9.78;74.58
13476;BME280;6810;63.824;20.288;2023-11-19T06:22:47;101616.66;;;-9.59;75.03
13476;BME280;6810;63.824;20.288;2023-11-19T06:25:34;101620.97;;;-9.58;74.22
13476;BME280;6810;63.824;20.288;2023-11-19T06:28:21;101593.75;;;-9.73;74.18
13476;BME280;6810;63.824;20.288;2023-11-19T06:31:08;101623.56;;;-9.58;74.23
13476;BME280;6810;63.824;20.288;2023-11-19T06:33:55;101596.16;;;-9.78;74.75
13476;BME280;6810;63.824;20.288;2023-11-19T06:36:42;101634.72;;;-9.59;74.07
13476;BME280;6810;63.824;20.288;2023-11-19T06:39:32;101645.03;;;-9.59;74.10
13476;BME280;6810;63.824;20.288;2023-11-19T06:42:19;101616.22;;;-9.71;74.48
13476;BME280;6810;63.824;20.288;2023-11-19T06:45:06;101646.72;;;-9.59;74.75
13476;BME280;6810;63.824;20.288;2023-11-19T06:47:53;101636.28;;;-9.62;73.95
13476;BME280;6810;63.824;20.288;2023-11-19T06:50:40;101637.91;;;-9.64;73.95
13476;BME280;6810;63.824;20.288;2023-11-19T06:53:27;101637.06;;;-9.65;74.23
13476;BME280;6810;63.824;20.288;2023-11-19T06:56:21;101647.50;;;-9.62;74.50
13476;BME280;6810;63.824;20.288;2023-11-19T06:59:09;101647.50;;;-9.62;74.91
13476;BME280;6810;63.824;20.288;2023-11-19T07:01:56;101651.75;;;-9.62;74.92
13476;BME280;6810;63.824;20.288;2023-11-19T07:04:43;101638.59;;;-9.70;74.35
13476;BME280;6810;63.824;20.288;2023-11-19T07:07:31;101641.22;;;-9.68;74.64
13476;BME280;6810;63.824;20.288;2023-11-19T07:10:19;101649.97;;;-9.65;74.71
13476;BME280;6810;63.824;20.288;2023-11-19T07:13:06;101653.38;;;-9.64;74.38
13476;BME280;6810;63.824;20.288;2023-11-19T07:15:53;101655.06;;;-9.66;74.41
13476;BME280;6810;63.824;20.288;2023-11-19T07:18:41;101651.66;;;-9.65;74.93
13476;BME280;6810;63.824;20.288;2023-11-19T07:21:28;101653.34;;;-9.66;74.41
13476;BME280;6810;63.824;20.288;2023-11-19T07:24:15;101652.44;;;-9.68;74.80
13476;BME280;6810;63.824;20.288;2023-11-19T07:27:02;101651.53;;;-9.68;74.63
13476;BME280;6810;63.824;20.288;2023-11-19T07:29:49;101645.50;;;-9.69;74.08
13476;BME280;6810;63.824;20.288;2023-11-19T07:32:36;101648.91;;;-9.70;74.74
13476;BME280;6810;63.824;20.288;2023-11-19T07:35:23;101638.47;;;-9.73;73.98
13476;BME280;6810;63.824;20.288;2023-11-19T07:38:10;101654.94;;;-9.69;74.33
13476;BME280;6810;63.824;20.288;2023-11-19T07:40:57;101655.81;;;-9.69;73.97
13476;BME280;6810;63.824;20.288;2023-11-19T07:43:44;101657.53;;;-9.69;73.97
13476;BME280;6810;63.824;20.288;2023-11-19T07:46:31;101645.50;;;-9.69;74.04
13476;BME280;6810;63.824;20.288;2023-11-19T07:49:18;101665.31;;;-9.68;74.27
13476;BME280;6810;63.824;20.288;2023-11-19T07:52:05;101666.38;;;-9.63;74.13
13476;BME280;6810;63.824;20.288;2023-11-19T07:54:52;101654.44;;;-9.59;74.40
13476;BME280;6810;63.824;20.288;2023-11-19T07:57:40;101660.66;;;-9.54;74.70
13476;BME280;6810;63.824;20.288;2023-11-19T08:00:26;101654.84;;;-9.49;74.16
13476;BME280;6810;63.824;20.288;2023-11-19T08:03:13;101641.31;;;-9.43;74.93
13476;BME280;6810;63.824;20.288;2023-11-19T08:06:03;101643.28;;;-9.36;74.19
13476;BME280;6810;63.824;20.288;2023-11-19T08:08:50;101641.63;;;-9.34;75.04
13476;BME280;6810;63.824;20.288;2023-11-19T08:11:37;101657.59;;;-9.21;74.24
13476;BME280;6810;63.824;20.288;2023-11-19T08:14:24;101643.22;;;-9.14;74.69
13476;BME280;6810;63.824;20.288;2023-11-19T08:17:12;101638.28;;;-9.08;75.06
13476;BME280;6810;63.824;20.288;2023-11-19T08:19:59;101639.47;;;-8.98;75.23
13476;BME280;6810;63.824;20.288;2023-11-19T08:22:46;101640.53;;;-8.92;74.84
13476;BME280;6810;63.824;20.288;2023-11-19T08:25:33;101639.94;;;-8.85;74.73
13476;BME280;6810;63.824;20.288;2023-11-19T08:28:23;101641.94;;;-8.76;74.91
13476;BME280;6810;63.824;20.288;2023-11-19T08:31:10;101628.28;;;-8.72;75.17
13476;BME280;6810;63.824;20.288;2023-11-19T08:33:56;101628.69;;;-8.62;75.05
13476;BME280;6810;63.824;20.288;2023-11-19T08:36:44;101621.97;;;-8.55;74.98
13476;BME280;6810;63.824;20.288;2023-11-19T08:39:31;101606.56;;;-8.52;74.71
13476;BME280;6810;63.824;20.288;2023-11-19T08:42:18;101612.13;;;-8.40;75.22
13476;BME280;6810;63.824;20.288;2023-11-19T08:45:05;101606.41;;;-8.32;75.15
13476;BME280;6810;63.824;20.288;2023-11-19T08:47:52;101605.78;;;-8.23;74.59
13476;BME280;6810;63.824;20.288;2023-11-19T08:50:39;101601.72;;;-8.15;75.11
13476;BME280;6810;63.824;20.288;2023-11-19T08:53:26;101597.66;;;-8.07;75.08
13476;BME280;6810;63.824;20.288;2023-11-19T08:56:13;101606.53;;;-7.99;75.30
13476;BME280;6810;63.824;20.288;2023-11-19T08:59:01;101605.91;;;-7.91;75.13
13476;BME280;6810;63.824;20.288;2023-11-19T09:01:48;101600.91;;;-7.85;74.96
13476;BME280;6810;63.824;20.288;2023-11-19T09:04:35;101595.88;;;-7.80;74.74
13476;BME280;6810;63.824;20.288;2023-11-19T09:07:23;101607.19;;;-7.77;74.96
13476;BME280;6810;63.824;20.288;2023-11-19T09:10:10;101598.59;;;-7.76;74.67
13476;BME280;6810;63.824;20.288;2023-11-19T09:12:57;101599.56;;;-7.72;74.95
13476;BME280;6810;63.824;20.288;2023-11-19T09:15:44;101586.59;;;-7.74;74.75
13476;BME280;6810;63.824;20.288;2023-11-19T09:18:31;101594.78;;;-7.59;74.93
13476;BME280;6810;63.824;20.288;2023-11-19T09:21:18;101578.34;;;-7.61;75.12
13476;BME280;6810;63.824;20.288;2023-11-19T09:24:05;101587.19;;;-7.53;74.95
13476;BME280;6810;63.824;20.288;2023-11-19T09:26:52;101596.75;;;-7.50;74.96
13476;BME280;6810;63.824;20.288;2023-11-19T09:29:39;101583.88;;;-7.47;74.79
13476;BME280;6810;63.824;20.288;2023-11-19T09:32:26;101573.63;;;-7.44;74.96
13476;BME280;6810;63.824;20.288;2023-11-19T09:35:13;101571.06;;;-7.43;75.06
13476;BME280;6810;63.824;20.288;2023-11-19T09:38:00;101568.56;;;-7.40;74.96
13476;BME280;6810;63.824;20.288;2023-11-19T09:40:48;101570.38;;;-7.37;74.87
13476;BME280;6810;63.824;20.288;2023-11-19T09:43:35;101568.72;;;-7.35;74.98
13476;BME280;6810;63.824;20.288;2023-11-19T09:46:26;101565.34;;;-7.33;75.07
13476;BME280;6810;63.824;20.288;2023-11-19T09:49:14;101562.00;;;-7.27;75.28
13476;BME280;6810;63.824;20.288;2023-11-19T09:52:06;101546.59;;;-7.23;75.04
13476;BME280;6810;63.824;20.288;2023-11-19T09:54:52;101562.34;;;-7.15;74.96
13476;BME280;6810;63.824;20.288;2023-11-19T09:57:40;101552.97;;;-7.10;75.20
13476;BME280;6810;63.824;20.288;2023-11-19T10:00:27;101557.53;;;-7.01;75.23
13476;BME280;6810;63.824;20.288;2023-11-19T10:03:34;101555.09;;;-6.95;75.25
13476;BME280;6810;63.824;20.288;2023-11-19T10:06:22;101561.31;;;-6.87;74.76
13476;BME280;6810;63.824;20.288;2023-11-19T10:09:12;101563.13;;;-6.85;75.31
13476;BME280;6810;63.824;20.288;2023-11-19T10:11:59;101560.84;;;-6.73;75.20
13476;BME280;6810;63.824;20.288;2023-11-19T10:14:47;101557.53;;;-6.66;75.44
13476;BME280;6810;63.824;20.288;2023-11-19T10:17:35;101564.66;;;-6.59;75.23
13476;BME280;6810;63.824;20.288;2023-11-19T10:20:22;101552.69;;;-6.52;75.27
13476;BME280;6810;63.824;20.288;2023-11-19T10:23:09;101550.28;;;-6.45;75.15
13476;BME280;6810;63.824;20.288;2023-11-19T10:26:03;101552.19;;;-6.38;75.72
13476;BME280;6810;63.824;20.288;2023-11-19T10:28:50;101539.28;;;-6.35;75.41
13476;BME280;6810;63.824;20.288;2023-11-19T10:31:37;101543.78;;;-6.26;75.47
13476;BME280;6810;63.824;20.288;2023-11-19T10:34:44;101535.34;;;-6.18;75.28
13476;BME280;6810;63.824;20.288;2023-11-19T10:37:31;101536.31;;;-6.13;75.46
13476;BME280;6810;63.824;20.288;2023-11-19T10:40:18;101539.09;;;-6.05;75.57
13476;BME280;6810;63.824;20.288;2023-11-19T10:43:06;101527.09;;;-5.99;75.89
13476;BME280;6810;63.824;20.288;2023-11-19T10:45:53;101535.91;;;-5.92;75.37
13476;BME280;6810;63.824;20.288;2023-11-19T10:48:40;101529.97;;;-5.85;74.95
13476;BME280;6810;63.824;20.288;2023-11-19T10:51:28;101536.97;;;-5.81;75.82
13476;BME280;6810;63.824;20.288;2023-11-19T10:54:18;101531.06;;;-5.74;75.47
13476;BME280;6810;63.824;20.288;2023-11-19T10:57:07;101528.53;;;-5.70;75.14
13476;BME280;6810;63.824;20.288;2023-11-19T11:00:00;101513.91;;;-5.66;75.39
13476;BME280;6810;63.824;20.288;2023-11-19T11:02:40;101524.47;;;-5.57;75.57
13476;BME280;6810;63.824;20.288;2023-11-19T11:05:30;101524.69;;;-5.47;75.58
13476;BME280;6810;63.824;20.288;2023-11-19T11:08:20;101509.97;;;-5.46;75.81
13476;BME280;6810;63.824;20.288;2023-11-19T11:11:07;101459.50;;;-5.62;75.62
13476;BME280;6810;63.824;20.288;2023-11-19T11:13:54;101513.78;;;-5.27;75.75
13476;BME280;6810;63.824;20.288;2023-11-19T11:16:43;101519.94;;;-5.21;75.93
13476;BME280;6810;63.824;20.288;2023-11-19T11:19:30;101507.97;;;-5.14;76.16
13476;BME280;6810;63.824;20.288;2023-11-19T11:22:18;101480.97;;;-5.21;75.68
13476;BME280;6810;63.824;20.288;2023-11-19T11:25:19;101499.53;;;-5.01;76.34
13476;BME280;6810;63.824;20.288;2023-11-19T11:28:21;101507.44;;;-4.95;75.32
13476;BME280;6810;63.824;20.288;2023-11-19T11:34:28;101478.81;;;-4.97;76.07
13476;BME280;6810;63.824;20.288;2023-11-19T11:37:43;101506.88;;;-4.76;75.85
13476;BME280;6810;63.824;20.288;2023-11-19T11:40:31;101507.81;;;-4.71;76.52
13476;BME280;6810;63.824;20.288;2023-11-19T11:43:44;101500.97;;;-4.66;76.52
13476;BME280;6810;63.824;20.288;2023-11-19T11:49:25;101504.59;;;-4.55;76.48
13476;BME280;6810;63.824;20.288;2023-11-19T11:52:12;101497.72;;;-4.52;75.71
13476;BME280;6810;63.824;20.288;2023-11-19T11:55:04;101504.78;;;-4.45;76.01
13476;BME280;6810;63.824;20.288;2023-11-19T11:57:51;101506.59;;;-4.39;76.46
13476;BME280;6810;63.824;20.288;2023-11-19T12:00:40;101500.56;;;-4.34;75.85
13476;BME280;6810;63.824;20.288;2023-11-19T22:26:12;101508.44;;;-4.86;75.82
13476;BME280;6810;63.824;20.288;2023-11-19T22:28:40;101514.53;;;-4.84;75.89
13476;BME280;6810;63.824;20.288;2023-11-19T22:31:07;101515.44;;;-4.83;76.28
13476;BME280;6810;63.824;20.288;2023-11-19T22:33:35;101525.91;;;-4.79;76.28
13476;BME280;6810;63.824;20.288;2023-11-19T22:36:02;101518.16;;;-4.76;75.88
13476;BME280;6810;63.824;20.288;2023-11-19T22:38:49;101527.72;;;-4.73;76.17
13476;BME280;6810;63.824;20.288;2023-11-19T22:41:36;101519.97;;;-4.70;75.83
13476;BME280;6810;63.824;20.288;2023-11-19T22:44:23;101528.69;;;-4.67;75.84
13476;BME280;6810;63.824;20.288;2023-11-19T22:47:10;101525.22;;;-4.66;76.91
13476;BME280;6810;63.824;20.288;2023-11-19T22:49:57;101531.34;;;-4.64;76.76
13476;BME280;6810;63.824;20.288;2023-11-19T22:52:44;101527.03;;;-4.62;76.17
13476;BME280;6810;63.824;20.288;2023-11-19T22:55:32;101520.09;;;-4.61;75.95
13476;BME280;6810;63.824;20.288;2023-11-19T22:58:19;101521.88;;;-4.59;76.47
13476;BME280;6810;63.824;20.288;2023-11-19T23:01:06;101520.16;;;-4.58;76.52
13476;BME280;6810;63.824;20.288;2023-11-19T23:03:53;101518.44;;;-4.56;75.92
13476;BME280;6810;63.824;20.288;2023-11-19T23:06:40;101521.06;;;-4.55;76.09
13476;BME280;6810;63.824;20.288;2023-11-19T23:09:27;101504.47;;;-4.63;76.98
13476;BME280;6810;63.824;20.288;2023-11-19T23:12:14;101505.34;;;-4.62;76.30
13476;BME280;6810;63.824;20.288;2023-11-19T23:15:01;101522.84;;;-4.51;76.37
13476;BME280;6810;63.824;20.288;2023-11-19T23:17:48;101527.25;;;-4.48;76.40
13476;BME280;6810;63.824;20.288;2023-11-19T23:20:35;101486.22;;;-4.67;76.32
13476;BME280;6810;63.824;20.288;2023-11-19T23:23:22;101529.00;;;-4.46;75.98
13476;BME280;6810;63.824;20.288;2023-11-19T23:26:10;101495.94;;;-4.56;76.60
13476;BME280;6810;63.824;20.288;2023-11-19T23:28:57;101482.81;;;-4.63;76.70
13476;BME280;6810;63.824;20.288;2023-11-19T23:31:44;101522.16;;;-4.41;75.94
13476;BME280;6810;63.824;20.288;2023-11-19T23:34:31;101520.44;;;-4.40;76.29
13476;BME280;6810;63.824;20.288;2023-11-19T23:37:18;101520.44;;;-4.40;76.89
13476;BME280;6810;63.824;20.288;2023-11-19T23:40:06;101530.03;;;-4.36;76.55
13476;BME280;6810;63.824;20.288;2023-11-19T23:42:53;101535.25;;;-4.35;76.25
13476;BME280;6810;63.824;20.288;2023-11-19T23:45:41;101532.66;;;-4.35;76.86
13476;BME280;6810;63.824;20.288;2023-11-19T23:48:28;101523.97;;;-4.35;75.99
13476;BME280;6810;63.824;20.288;2023-11-19T23:51:18;101548.28;;;-4.33;75.90
13476;BME280;6810;63.824;20.288;2023-11-19T23:54:05;101532.69;;;-4.33;75.69
13476;BME280;6810;63.824;20.288;2023-11-19T23:56:52;101530.09;;;-4.32;76.00
13476;BME280;6810;63.824;20.288;2023-11-19T23:59:40;101535.31;;;-4.32;76.53
